CheckWX is a tool to help pilots better visualize weather data.  It is not intended as a substitute for an official pre-flight weather briefing.

01:40:35 UTC

KCXO TAF
Conroe-North Houston Regional Airport
Houston, Texas, USA
KCXO 212324Z 2200/2224 11005KT P6SM SCT250 FM221200 10009KT 6SM -SHRA OVC060 FM221500 10009KT 4SM SHRA BR OVC018 FM221700 11010KT 2SM SHRA BR OVC006

Jan-22@
00:00 UTC

Jan-22 @ 00:00 UTC

Jan-22@
12:00 UTC

Jan-22 @ 12:00 UTC

KCXO 212324Z 2200/2224 11005KT P6SM SCT250
Wind
  • 110° at 5 KTS
Cloud Levels
  • Scattered at 25,000' AGL

Jan-22@
12:00 UTC

Jan-22 @ 12:00 UTC

Jan-22@
15:00 UTC

Jan-22 @ 15:00 UTC

FM221200 10009KT 6SM -SHRA OVC060

From

From Standard forecast or significant change

Wind
  • 100° at 9 KTS
Conditions
Light Rain
Cloud Levels
  • Overcast at 6,000' AGL

Jan-22@
15:00 UTC

Jan-22 @ 15:00 UTC

Jan-22@
17:00 UTC

Jan-22 @ 17:00 UTC

FM221500 10009KT 4SM SHRA BR OVC018

From

From Standard forecast or significant change

Wind
  • 100° at 9 KTS
Conditions
Rain, Mist
Cloud Levels
  • Overcast at 1,800' AGL

Jan-22@
17:00 UTC

Jan-22 @ 17:00 UTC

Jan-23@
00:00 UTC

Jan-23 @ 00:00 UTC

FM221700 11010KT 2SM SHRA BR OVC006

From

From Standard forecast or significant change

Wind
  • 110° at 10 KTS
Conditions
Rain, Mist
Cloud Levels
  • Overcast at 600' AGL